createdAt,value
2023-02-28T00:01:13.994Z,93.82
2023-02-28T00:03:17.554Z,93.66
2023-02-28T00:05:23.384Z,93.65
2023-02-28T00:07:26.610Z,93.83
2023-02-28T00:09:30.002Z,93.82
2023-02-28T00:11:33.349Z,93.82
2023-02-28T00:13:39.322Z,93.62
2023-02-28T00:15:43.554Z,93.84
2023-02-28T00:17:48.379Z,93.97
2023-02-28T00:19:52.286Z,94.22
2023-02-28T00:21:55.813Z,94.66
2023-02-28T00:23:59.528Z,94.86
2023-02-28T00:26:03.481Z,94.59
2023-02-28T00:28:07.141Z,94.75
2023-02-28T00:30:13.529Z,95.10
2023-02-28T00:32:17.140Z,95.43
2023-02-28T00:34:22.192Z,95.27
2023-02-28T00:36:25.715Z,95.40
2023-02-28T00:38:29.202Z,95.62
2023-02-28T00:40:32.939Z,96.10
2023-02-28T00:42:37.022Z,96.00
2023-02-28T00:44:40.742Z,96.17
2023-02-28T00:46:44.304Z,96.29
2023-02-28T00:48:47.938Z,96.79
2023-02-28T00:50:53.279Z,97.20
2023-02-28T00:52:56.703Z,97.33
2023-02-28T00:55:00.390Z,97.59
2023-02-28T00:57:04.253Z,97.29
2023-02-28T00:59:09.228Z,97.25
2023-02-28T01:01:13.084Z,97.36
2023-02-28T01:03:17.336Z,97.75
2023-02-28T01:05:20.819Z,97.82
2023-02-28T01:07:26.092Z,97.80
2023-02-28T01:09:30.734Z,97.88
2023-02-28T01:11:36.601Z,97.83
2023-02-28T01:13:40.196Z,98.18
2023-02-28T01:15:52.360Z,98.10
2023-02-28T01:17:56.289Z,98.22
2023-02-28T01:19:59.838Z,98.26
2023-02-28T01:22:04.838Z,97.94
2023-02-28T01:24:10.236Z,97.75
2023-02-28T01:26:16.096Z,97.90
2023-02-28T01:28:19.695Z,97.73
2023-02-28T01:30:23.476Z,97.99
2023-02-28T01:32:27.151Z,97.45
2023-02-28T01:34:30.740Z,97.36
2023-02-28T01:36:34.342Z,97.36
2023-02-28T01:38:38.132Z,97.17
2023-02-28T01:40:43.178Z,96.98
2023-02-28T01:42:47.659Z,97.12
2023-02-28T01:45:05.705Z,96.85
2023-02-28T01:47:09.305Z,96.58
2023-02-28T01:49:17.743Z,96.54
2023-02-28T01:51:25.686Z,96.72
2023-02-28T01:53:36.788Z,96.52
2023-02-28T01:55:42.503Z,96.78
2023-02-28T01:57:51.052Z,96.62
2023-02-28T02:00:00.848Z,96.47
2023-02-28T02:02:05.257Z,96.10
2023-02-28T02:04:09.699Z,96.28
2023-02-28T02:06:13.238Z,96.04
2023-02-28T02:08:23.039Z,96.09
2023-02-28T02:10:34.073Z,95.74
2023-02-28T02:12:54.674Z,96.03
2023-02-28T02:15:05.463Z,95.80
2023-02-28T02:17:20.886Z,95.88
2023-02-28T02:19:48.631Z,95.66
2023-02-28T02:22:23.641Z,95.61
2023-02-28T02:24:50.008Z,95.45
2023-02-28T02:27:07.043Z,95.48
2023-02-28T02:29:50.135Z,95.51
2023-02-28T02:32:06.667Z,95.79
2023-02-28T02:34:33.845Z,95.85
2023-02-28T02:36:42.344Z,95.61
2023-02-28T02:38:52.375Z,95.94
2023-02-28T02:41:04.655Z,95.75
2023-02-28T02:43:15.690Z,95.96
2023-02-28T02:45:24.985Z,96.14
2023-02-28T02:47:33.261Z,95.90
2023-02-28T02:49:40.785Z,96.16
2023-02-28T02:51:46.772Z,96.25
2023-02-28T02:53:54.196Z,96.67
2023-02-28T02:56:00.348Z,96.38
2023-02-28T02:58:07.128Z,97.00
2023-02-28T03:00:12.500Z,96.49
2023-02-28T03:02:20.359Z,96.76
2023-02-28T03:04:29.663Z,96.69
2023-02-28T03:06:34.568Z,96.64
2023-02-28T03:08:39.961Z,97.05
2023-02-28T03:10:45.406Z,97.05
2023-02-28T03:13:21.700Z,97.10
2023-02-28T03:15:35.379Z,97.05
2023-02-28T03:17:56.802Z,96.80
2023-02-28T03:20:11.281Z,97.24
2023-02-28T03:22:32.536Z,97.02
2023-02-28T03:24:43.685Z,97.26
2023-02-28T03:26:55.404Z,97.35
2023-02-28T03:29:06.530Z,97.25
2023-02-28T03:31:17.614Z,97.32
2023-02-28T03:33:26.682Z,97.26
2023-02-28T03:35:35.598Z,96.96
2023-02-28T03:37:45.381Z,96.92
2023-02-28T03:39:53.026Z,97.11
2023-02-28T03:42:02.329Z,97.33
2023-02-28T03:44:11.182Z,97.14
2023-02-28T03:46:22.353Z,97.20
2023-02-28T03:48:33.422Z,97.29
2023-02-28T03:50:40.617Z,97.01
2023-02-28T03:52:51.963Z,97.17
2023-02-28T03:54:57.944Z,96.95
2023-02-28T03:57:08.609Z,96.92
2023-02-28T03:59:16.981Z,96.81
2023-02-28T04:01:26.333Z,96.81
2023-02-28T04:03:29.961Z,96.94
2023-02-28T04:05:34.370Z,96.85
2023-02-28T04:07:38.114Z,97.07
2023-02-28T04:09:43.564Z,96.70
2023-02-28T04:11:52.630Z,96.83
2023-02-28T04:13:56.188Z,96.69
2023-02-28T04:15:59.596Z,96.58
2023-02-28T04:18:03.934Z,96.69
2023-02-28T04:20:10.765Z,96.41
2023-02-28T04:22:14.743Z,96.50
2023-02-28T04:24:20.353Z,96.50
2023-02-28T04:26:25.350Z,96.36
2023-02-28T04:28:28.966Z,96.84
2023-02-28T04:30:33.718Z,96.97
2023-02-28T04:32:37.270Z,97.01
2023-02-28T04:34:41.129Z,96.67
2023-02-28T04:36:44.855Z,97.28
2023-02-28T04:38:48.919Z,96.94
2023-02-28T04:40:52.537Z,96.94
2023-02-28T04:42:57.428Z,96.86
2023-02-28T04:45:00.968Z,96.88
2023-02-28T04:47:04.405Z,96.86
2023-02-28T04:49:08.058Z,96.95
2023-02-28T04:51:13.371Z,97.09
2023-02-28T04:53:16.796Z,97.22
2023-02-28T04:55:20.496Z,97.74
2023-02-28T04:57:24.180Z,97.47
2023-02-28T04:59:29.392Z,97.88
2023-02-28T05:01:35.996Z,97.90
2023-02-28T05:03:39.766Z,97.99
2023-02-28T05:05:43.390Z,98.50
2023-02-28T05:07:47.414Z,98.90
2023-02-28T05:09:51.015Z,98.50
2023-02-28T05:11:54.869Z,98.32
2023-02-28T05:13:58.626Z,98.70
2023-02-28T05:16:03.665Z,99.15
2023-02-28T05:18:07.213Z,99.56
2023-02-28T05:20:16.172Z,100.00
2023-02-28T05:22:19.986Z,100.00
2023-02-28T05:24:25.007Z,100.00
2023-02-28T05:26:29.506Z,100.00
2023-02-28T05:28:33.021Z,100.00
2023-02-28T05:30:36.776Z,100.00
2023-02-28T05:32:44.005Z,100.00
2023-02-28T05:34:47.714Z,100.00
2023-02-28T05:36:51.378Z,100.00
2023-02-28T05:38:54.989Z,100.00
2023-02-28T05:40:58.558Z,100.00
2023-02-28T05:43:02.249Z,100.00
2023-02-28T05:45:06.606Z,100.00
2023-02-28T05:47:10.174Z,100.00
2023-02-28T05:49:15.244Z,100.00
2023-02-28T05:51:19.201Z,100.00
2023-02-28T05:53:23.086Z,100.00
2023-02-28T05:55:26.925Z,100.00
2023-02-28T05:57:30.406Z,100.00
2023-02-28T05:59:34.217Z,100.00
2023-02-28T06:01:39.554Z,100.00
2023-02-28T06:03:43.015Z,100.00
2023-02-28T06:05:48.432Z,100.00
2023-02-28T06:07:51.871Z,100.00
2023-02-28T06:09:55.460Z,100.00
2023-02-28T06:12:00.440Z,100.00
2023-02-28T06:14:04.953Z,100.00
2023-02-28T06:16:09.249Z,100.00
2023-02-28T06:18:12.790Z,100.00
2023-02-28T06:20:16.305Z,100.00
2023-02-28T06:22:21.357Z,100.00
2023-02-28T06:24:26.306Z,100.00
2023-02-28T06:26:29.847Z,100.00
2023-02-28T06:28:33.756Z,100.00
2023-02-28T06:30:37.356Z,100.00
2023-02-28T06:32:40.983Z,100.00
2023-02-28T06:34:44.810Z,100.00
2023-02-28T06:36:48.340Z,100.00
2023-02-28T06:38:55.897Z,100.00
2023-02-28T06:41:00.908Z,100.00
2023-02-28T06:43:04.838Z,100.00
2023-02-28T06:45:10.648Z,100.00
2023-02-28T06:47:14.425Z,100.00
2023-02-28T06:49:18.150Z,100.00
2023-02-28T06:51:25.442Z,100.00
2023-02-28T06:53:29.153Z,100.00
2023-02-28T06:55:34.265Z,100.00
2023-02-28T06:57:37.955Z,100.00
2023-02-28T06:59:41.556Z,100.00
2023-02-28T07:01:45.387Z,100.00
2023-02-28T07:03:53.331Z,100.00
2023-02-28T07:05:57.750Z,100.00
2023-02-28T07:08:01.460Z,100.00
2023-02-28T07:10:05.451Z,100.00
2023-02-28T07:12:10.508Z,100.00
2023-02-28T07:14:14.741Z,100.00
2023-02-28T07:16:18.463Z,100.00
2023-02-28T07:18:22.159Z,100.00
2023-02-28T07:20:26.208Z,100.00
2023-02-28T07:22:30.007Z,100.00
2023-02-28T07:24:33.673Z,100.00
2023-02-28T07:26:37.429Z,100.00
2023-02-28T07:28:43.437Z,100.00
2023-02-28T07:30:47.057Z,100.00
2023-02-28T07:32:50.811Z,100.00
2023-02-28T07:34:54.348Z,100.00
2023-02-28T07:36:59.933Z,100.00
2023-02-28T07:39:07.919Z,100.00
2023-02-28T07:41:12.704Z,100.00
2023-02-28T07:43:16.517Z,100.00
2023-02-28T07:45:21.462Z,100.00
2023-02-28T07:47:25.634Z,100.00
2023-02-28T07:49:29.077Z,100.00
2023-02-28T07:51:33.366Z,100.00
2023-02-28T07:53:37.091Z,100.00
2023-02-28T07:55:40.704Z,100.00
2023-02-28T07:57:44.570Z,100.00
2023-02-28T07:59:48.300Z,100.00
2023-02-28T08:01:53.857Z,100.00
2023-02-28T08:03:58.266Z,100.00
2023-02-28T08:06:03.488Z,100.00
2023-02-28T08:08:07.045Z,100.00
2023-02-28T08:10:11.093Z,100.00
2023-02-28T08:12:14.805Z,100.00
2023-02-28T08:14:18.984Z,100.00
2023-02-28T08:16:23.623Z,100.00
2023-02-28T08:18:28.692Z,100.00
2023-02-28T08:20:32.321Z,100.00
2023-02-28T08:22:35.933Z,100.00
2023-02-28T08:24:39.859Z,100.00
2023-02-28T08:26:43.674Z,100.00
2023-02-28T08:28:47.714Z,100.00
2023-02-28T08:30:51.397Z,100.00
2023-02-28T08:32:55.682Z,100.00
2023-02-28T08:35:01.514Z,100.00
2023-02-28T08:37:05.143Z,100.00
2023-02-28T08:39:10.264Z,100.00
2023-02-28T08:41:14.453Z,100.00
2023-02-28T08:43:18.125Z,100.00
2023-02-28T08:45:21.920Z,100.00
2023-02-28T08:47:25.494Z,100.00
2023-02-28T08:49:29.759Z,100.00
2023-02-28T08:51:34.752Z,100.00
2023-02-28T08:53:38.880Z,100.00
2023-02-28T08:55:42.381Z,100.00
2023-02-28T08:57:46.221Z,100.00
2023-02-28T08:59:49.874Z,100.00
2023-02-28T09:01:53.571Z,100.00
2023-02-28T09:03:58.262Z,100.00
2023-02-28T09:06:03.361Z,100.00
2023-02-28T09:08:08.442Z,100.00
2023-02-28T09:10:12.301Z,100.00
2023-02-28T09:12:15.775Z,100.00
2023-02-28T09:14:19.711Z,100.00
2023-02-28T09:16:23.848Z,100.00
2023-02-28T09:18:28.107Z,99.55
2023-02-28T09:20:31.655Z,98.63
2023-02-28T09:22:35.374Z,98.77
2023-02-28T09:26:56.470Z,97.24
2023-02-28T09:29:07.797Z,97.85
2023-02-28T09:31:15.490Z,96.65
2023-02-28T09:33:21.899Z,95.81
2023-02-28T09:35:27.995Z,95.17
2023-02-28T09:37:32.342Z,94.72
2023-02-28T09:39:35.996Z,94.46
2023-02-28T09:41:49.736Z,93.38
2023-02-28T09:43:58.130Z,93.27
2023-02-28T09:46:08.728Z,91.16
2023-02-28T09:48:18.339Z,90.51
2023-02-28T09:50:34.405Z,91.05
2023-02-28T09:52:40.218Z,91.25
2023-02-28T09:54:44.395Z,89.96
2023-02-28T09:56:54.542Z,90.15
2023-02-28T09:59:07.941Z,90.25
2023-02-28T10:01:21.695Z,90.23
2023-02-28T10:03:31.618Z,90.04
2023-02-28T10:05:43.362Z,90.79
2023-02-28T10:08:06.260Z,88.15
2023-02-28T10:10:24.427Z,88.14
2023-02-28T10:12:32.508Z,88.13
2023-02-28T10:14:37.932Z,88.49
2023-02-28T10:16:47.861Z,88.76
2023-02-28T10:18:57.953Z,88.83
2023-02-28T10:21:02.460Z,88.03
2023-02-28T10:23:14.799Z,88.12
2023-02-28T10:25:21.537Z,88.00
2023-02-28T10:27:27.941Z,87.20
2023-02-28T10:29:36.114Z,87.21
2023-02-28T10:31:41.733Z,86.70
2023-02-28T10:33:46.923Z,86.29
2023-02-28T10:35:51.184Z,85.92
2023-02-28T10:37:58.723Z,85.73
2023-02-28T10:40:03.088Z,85.13
2023-02-28T10:42:08.061Z,84.20
2023-02-28T10:44:24.082Z,84.19
2023-02-28T10:46:33.432Z,84.44
2023-02-28T10:48:40.519Z,84.46
2023-02-28T10:50:48.077Z,82.81
2023-02-28T10:52:52.445Z,81.79
2023-02-28T10:55:18.268Z,83.13
2023-02-28T10:57:25.640Z,83.29
2023-02-28T10:59:32.741Z,84.04
2023-02-28T11:01:44.525Z,84.14
2023-02-28T11:03:49.130Z,83.67
2023-02-28T11:05:53.239Z,82.91
2023-02-28T11:07:59.463Z,82.15
2023-02-28T11:10:04.744Z,82.13
2023-02-28T11:12:11.268Z,82.35
2023-02-28T11:14:23.203Z,82.40
2023-02-28T11:16:36.576Z,82.10
2023-02-28T11:18:46.760Z,80.86
2023-02-28T11:20:52.525Z,81.76
2023-02-28T11:22:58.545Z,81.77
2023-02-28T11:25:04.869Z,82.27
2023-02-28T11:27:11.700Z,81.24
2023-02-28T11:29:21.944Z,81.23
2023-02-28T11:31:28.615Z,79.92
2023-02-28T11:33:34.223Z,80.15
2023-02-28T11:35:41.976Z,80.81
2023-02-28T11:37:47.213Z,80.60
2023-02-28T11:39:51.215Z,78.91
2023-02-28T11:42:45.354Z,77.86
2023-02-28T11:45:05.274Z,78.34
2023-02-28T11:47:16.460Z,78.69
2023-02-28T11:49:28.543Z,78.32
2023-02-28T11:51:37.673Z,78.94
2023-02-28T11:53:57.972Z,80.42
2023-02-28T11:56:09.181Z,81.24
2023-02-28T11:58:27.878Z,84.33
2023-02-28T12:00:45.209Z,87.71
2023-02-28T12:03:09.807Z,90.47
2023-02-28T12:05:23.974Z,91.97
2023-02-28T12:07:52.836Z,92.16
2023-02-28T12:10:09.663Z,92.29
2023-02-28T12:12:26.452Z,91.62
2023-02-28T12:14:59.599Z,91.59
2023-02-28T12:17:20.236Z,90.44
2023-02-28T12:19:29.456Z,89.30
2023-02-28T12:21:45.226Z,88.12
2023-02-28T12:24:05.576Z,87.01
2023-02-28T12:26:18.603Z,86.10
2023-02-28T12:28:27.980Z,84.74
2023-02-28T12:30:35.000Z,85.29
2023-02-28T12:32:44.094Z,85.43
2023-02-28T12:34:53.620Z,84.05
2023-02-28T12:37:01.292Z,84.12
2023-02-28T12:39:14.230Z,83.17
2023-02-28T12:41:21.359Z,82.56
2023-02-28T12:43:29.519Z,82.52
2023-02-28T12:45:42.171Z,82.17
2023-02-28T12:47:48.911Z,80.54
2023-02-28T12:49:56.685Z,80.53
2023-02-28T12:52:02.193Z,81.61
2023-02-28T12:54:17.098Z,82.37
2023-02-28T12:56:33.258Z,82.99
2023-02-28T12:58:40.489Z,83.48
2023-02-28T13:01:07.974Z,83.25
2023-02-28T13:03:37.593Z,81.82
2023-02-28T13:06:17.155Z,81.26
2023-02-28T13:08:41.780Z,80.59
2023-02-28T13:10:48.721Z,81.09
2023-02-28T13:12:53.830Z,81.16
2023-02-28T13:15:12.602Z,81.00
2023-02-28T13:17:22.345Z,80.60
2023-02-28T13:19:28.442Z,80.90
2023-02-28T13:21:33.115Z,79.93
2023-02-28T13:23:42.625Z,80.33
2023-02-28T13:25:56.707Z,79.58
2023-02-28T13:28:05.309Z,79.24
2023-02-28T13:30:45.860Z,79.79
2023-02-28T13:33:20.094Z,80.41
2023-02-28T13:35:59.418Z,80.43
2023-02-28T13:38:50.695Z,80.52
2023-02-28T13:41:00.010Z,80.44
2023-02-28T13:43:04.602Z,80.43
2023-02-28T13:45:29.186Z,79.25
2023-02-28T13:47:36.235Z,79.74
2023-02-28T13:49:44.576Z,79.85
2023-02-28T13:51:51.156Z,80.19
2023-02-28T13:54:06.718Z,80.28
2023-02-28T13:56:29.985Z,80.53
2023-02-28T13:58:56.376Z,80.98
2023-02-28T14:01:25.258Z,81.05
2023-02-28T14:03:50.252Z,81.57
2023-02-28T14:06:26.325Z,81.54
2023-02-28T14:08:30.422Z,81.30
2023-02-28T14:10:37.543Z,80.93
2023-02-28T14:13:03.428Z,81.64
2023-02-28T14:15:28.746Z,81.30
2023-02-28T14:17:32.571Z,81.34
2023-02-28T14:19:39.562Z,81.64
2023-02-28T14:21:58.816Z,81.66
2023-02-28T14:24:52.659Z,81.51
2023-02-28T14:27:10.730Z,81.74
2023-02-28T14:29:33.120Z,81.65
2023-02-28T14:31:39.574Z,82.05
2023-02-28T14:34:02.203Z,81.56
2023-02-28T14:36:12.040Z,81.62
2023-02-28T14:38:23.962Z,81.97
2023-02-28T14:40:32.371Z,81.91
2023-02-28T14:42:42.879Z,82.03
2023-02-28T14:44:57.675Z,82.04
2023-02-28T14:47:06.810Z,82.01
2023-02-28T14:49:19.568Z,82.06
2023-02-28T14:51:24.477Z,81.77
2023-02-28T14:53:32.668Z,82.30
2023-02-28T14:55:38.398Z,82.26
2023-02-28T14:57:45.306Z,82.17
2023-02-28T14:59:49.194Z,81.96
2023-02-28T15:01:53.429Z,81.68
2023-02-28T15:04:04.088Z,81.94
2023-02-28T15:06:15.505Z,81.75
2023-02-28T15:08:21.188Z,81.48
2023-02-28T15:10:28.769Z,80.60
2023-02-28T15:12:32.449Z,81.24
2023-02-28T15:14:39.476Z,80.82
2023-02-28T15:16:48.073Z,81.12
2023-02-28T15:18:55.215Z,80.47
2023-02-28T15:21:01.385Z,80.44
2023-02-28T15:23:05.081Z,80.12
2023-02-28T15:25:10.420Z,80.44
2023-02-28T15:27:23.411Z,80.21
2023-02-28T15:29:30.343Z,80.50
2023-02-28T15:31:50.280Z,80.76
2023-02-28T15:34:04.925Z,80.89
2023-02-28T15:36:15.709Z,81.13
2023-02-28T15:38:24.685Z,81.24
2023-02-28T15:40:30.675Z,81.68
2023-02-28T15:42:35.535Z,81.02
2023-02-28T15:44:39.223Z,80.94
2023-02-28T15:46:45.583Z,80.55
2023-02-28T15:48:53.960Z,80.80
2023-02-28T15:50:59.912Z,81.15
2023-02-28T15:53:05.557Z,81.02
2023-02-28T15:55:19.810Z,81.23
2023-02-28T15:57:26.716Z,80.58
2023-02-28T15:59:33.658Z,80.53
2023-02-28T16:01:38.936Z,80.06
2023-02-28T16:03:46.738Z,80.06
2023-02-28T16:06:26.579Z,79.77
2023-02-28T16:08:30.200Z,79.86
2023-02-28T16:10:33.885Z,79.92
2023-02-28T16:12:39.517Z,78.92
2023-02-28T16:14:46.536Z,79.32
2023-02-28T16:16:52.986Z,78.40
2023-02-28T16:18:57.137Z,78.68
2023-02-28T16:21:00.677Z,78.51
2023-02-28T16:23:04.450Z,78.75
2023-02-28T16:25:09.151Z,78.19
2023-02-28T16:27:24.069Z,77.95
2023-02-28T16:29:31.190Z,77.68
2023-02-28T16:31:40.227Z,77.93
2023-02-28T16:33:43.717Z,77.91
2023-02-28T16:35:47.367Z,77.77
2023-02-28T16:37:53.212Z,77.77
2023-02-28T16:39:56.738Z,77.19
2023-02-28T16:42:00.322Z,77.97
2023-02-28T16:44:04.400Z,78.26
2023-02-28T16:46:08.185Z,78.18
2023-02-28T16:48:16.091Z,77.91
2023-02-28T16:50:22.332Z,77.92
2023-02-28T16:52:25.759Z,77.75
2023-02-28T16:54:29.591Z,77.92
2023-02-28T16:56:33.707Z,77.18
2023-02-28T16:58:37.785Z,77.33
2023-02-28T17:00:41.597Z,77.72
2023-02-28T17:02:45.335Z,77.54
2023-02-28T17:04:50.282Z,77.72
2023-02-28T17:06:54.220Z,77.88
2023-02-28T17:08:58.794Z,77.46
2023-02-28T17:11:03.466Z,77.56
2023-02-28T17:13:14.941Z,77.79
2023-02-28T17:15:20.652Z,77.73
2023-02-28T17:17:24.680Z,77.41
2023-02-28T17:19:29.227Z,77.18
2023-02-28T17:21:34.596Z,77.15
2023-02-28T17:23:38.048Z,76.93
2023-02-28T17:25:41.806Z,77.17
2023-02-28T17:27:45.811Z,77.71
2023-02-28T17:29:49.494Z,77.39
2023-02-28T17:31:53.136Z,77.58
2023-02-28T17:33:57.068Z,77.48
2023-02-28T17:36:00.794Z,77.71
2023-02-28T17:38:06.191Z,77.71
2023-02-28T17:40:15.309Z,78.03
2023-02-28T17:42:19.935Z,77.48
2023-02-28T17:44:26.188Z,77.38
2023-02-28T17:46:30.308Z,77.76
2023-02-28T17:48:34.310Z,78.03
2023-02-28T17:50:37.952Z,78.25
2023-02-28T17:52:41.716Z,77.99
2023-02-28T17:54:46.818Z,77.79
2023-02-28T17:56:50.498Z,77.79
2023-02-28T17:58:56.147Z,78.00
2023-02-28T18:00:59.819Z,78.06
2023-02-28T18:03:03.396Z,77.97
2023-02-28T18:05:08.320Z,77.82
2023-02-28T18:07:14.636Z,77.88
2023-02-28T18:09:22.731Z,78.26
2023-02-28T18:11:43.685Z,78.22
2023-02-28T18:13:48.365Z,78.18
2023-02-28T18:15:51.993Z,77.97
2023-02-28T18:17:55.752Z,77.70
2023-02-28T18:19:59.770Z,78.05
2023-02-28T18:22:03.401Z,77.96
2023-02-28T18:24:07.406Z,78.07
2023-02-28T18:26:10.954Z,77.90
2023-02-28T18:28:16.204Z,78.34
2023-02-28T18:30:20.821Z,78.58
2023-02-28T18:32:24.473Z,78.12
2023-02-28T18:34:28.472Z,77.87
2023-02-28T18:36:32.437Z,77.62
2023-02-28T18:38:36.531Z,78.00
2023-02-28T18:40:40.710Z,78.66
2023-02-28T18:42:44.609Z,78.49
2023-02-28T18:44:49.525Z,78.32
2023-02-28T18:46:53.007Z,78.27
2023-02-28T18:48:56.749Z,78.69
2023-02-28T18:51:00.400Z,78.75
2023-02-28T18:53:04.202Z,78.88
2023-02-28T18:55:11.078Z,79.19
2023-02-28T18:57:14.887Z,78.79
2023-02-28T18:59:18.798Z,78.99
2023-02-28T19:01:27.105Z,79.02
2023-02-28T19:03:30.815Z,79.02
2023-02-28T19:05:34.757Z,79.52
2023-02-28T19:07:38.272Z,79.67
2023-02-28T19:09:42.145Z,80.06
2023-02-28T19:11:45.712Z,79.93
2023-02-28T19:13:50.238Z,79.91
2023-02-28T19:16:03.074Z,80.41
2023-02-28T19:18:08.274Z,80.41
2023-02-28T19:20:13.608Z,80.70
2023-02-28T19:22:16.811Z,80.62
2023-02-28T19:24:20.649Z,80.58
2023-02-28T19:26:26.511Z,80.92
2023-02-28T19:28:31.468Z,81.13
2023-02-28T19:30:35.392Z,81.02
2023-02-28T19:32:38.965Z,81.05
2023-02-28T19:34:44.317Z,81.27
2023-02-28T19:36:47.932Z,81.29
2023-02-28T19:38:52.416Z,80.99
2023-02-28T19:41:01.986Z,81.11
2023-02-28T19:43:06.257Z,80.67
2023-02-28T19:45:14.916Z,80.91
2023-02-28T19:47:18.904Z,80.93
2023-02-28T19:49:24.414Z,81.31
2023-02-28T19:51:34.218Z,81.38
2023-02-28T19:53:40.739Z,81.32
2023-02-28T19:55:44.752Z,81.07
2023-02-28T19:57:48.459Z,81.40
2023-02-28T19:59:52.642Z,81.17
2023-02-28T20:01:56.580Z,81.18
2023-02-28T20:04:00.820Z,80.88
2023-02-28T20:06:07.418Z,81.12
2023-02-28T20:08:13.421Z,80.98
2023-02-28T20:10:17.124Z,81.12
2023-02-28T20:12:24.641Z,81.12
2023-02-28T20:14:29.200Z,81.23
2023-02-28T20:16:34.516Z,81.23
2023-02-28T20:18:39.251Z,80.94
2023-02-28T20:20:42.866Z,81.13
2023-02-28T20:22:52.401Z,80.83
2023-02-28T20:24:58.332Z,80.40
2023-02-28T20:27:02.077Z,80.59
2023-02-28T20:29:05.870Z,80.42
2023-02-28T20:31:13.991Z,79.83
2023-02-28T20:33:20.515Z,79.54
2023-02-28T20:35:24.336Z,79.25
2023-02-28T20:37:29.481Z,79.33
2023-02-28T20:39:33.090Z,79.50
2023-02-28T20:41:38.173Z,79.10
2023-02-28T20:43:42.311Z,79.38
2023-02-28T20:45:52.895Z,78.93
2023-02-28T20:47:56.389Z,78.11
2023-02-28T20:50:00.019Z,77.45
2023-02-28T20:52:04.421Z,77.66
2023-02-28T20:54:08.569Z,77.67
2023-02-28T20:56:16.276Z,77.50
2023-02-28T20:58:21.366Z,77.50
2023-02-28T21:00:26.543Z,77.71
2023-02-28T21:02:30.541Z,77.62
2023-02-28T21:04:34.543Z,76.63
2023-02-28T21:06:43.028Z,77.02
2023-02-28T21:08:47.272Z,77.19
2023-02-28T21:10:51.103Z,76.81
2023-02-28T21:12:57.908Z,77.17
2023-02-28T21:15:02.926Z,77.22
2023-02-28T21:17:09.239Z,76.69
2023-02-28T21:19:12.833Z,77.40
2023-02-28T21:21:18.831Z,77.58
2023-02-28T21:23:23.535Z,77.26
2023-02-28T21:25:27.235Z,77.34
2023-02-28T21:27:30.797Z,77.87
2023-02-28T21:29:34.643Z,77.67
2023-02-28T21:31:39.914Z,77.83
2023-02-28T21:33:43.838Z,77.76
2023-02-28T21:35:47.620Z,77.84
2023-02-28T21:37:51.277Z,77.90
2023-02-28T21:39:54.918Z,78.10
2023-02-28T21:42:04.319Z,78.21
2023-02-28T21:44:08.132Z,78.47
2023-02-28T21:46:23.291Z,78.17
2023-02-28T21:48:28.480Z,78.47
2023-02-28T21:50:32.288Z,78.07
2023-02-28T21:52:36.089Z,78.55
2023-02-28T21:54:39.753Z,78.58
2023-02-28T21:56:43.588Z,79.38
2023-02-28T21:58:49.500Z,78.87
2023-02-28T22:00:53.128Z,79.08
2023-02-28T22:02:56.702Z,79.04
2023-02-28T22:05:03.716Z,79.39
2023-02-28T22:07:07.701Z,79.46
2023-02-28T22:09:12.050Z,79.95
2023-02-28T22:11:17.464Z,80.51
2023-02-28T22:13:21.393Z,80.75
2023-02-28T22:15:25.123Z,80.55
2023-02-28T22:17:28.811Z,80.74
2023-02-28T22:19:32.419Z,81.32
2023-02-28T22:21:39.792Z,81.74
2023-02-28T22:23:44.765Z,81.83
2023-02-28T22:25:48.338Z,82.39
2023-02-28T22:27:51.964Z,82.39
2023-02-28T22:29:56.539Z,82.91
2023-02-28T22:32:00.306Z,82.73
2023-02-28T22:34:07.245Z,82.85
2023-02-28T22:36:12.352Z,83.02
2023-02-28T22:38:17.492Z,83.54
2023-02-28T22:40:20.978Z,83.36
2023-02-28T22:42:24.563Z,83.22
2023-02-28T22:44:28.544Z,83.09
2023-02-28T22:46:34.069Z,83.36
2023-02-28T22:48:38.637Z,83.48
2023-02-28T22:50:42.121Z,83.69
2023-02-28T22:52:45.924Z,83.89
2023-02-28T22:54:53.497Z,83.98
2023-02-28T22:56:57.102Z,84.13
2023-02-28T22:59:02.434Z,84.03
2023-02-28T23:01:10.329Z,83.88
2023-02-28T23:03:14.008Z,84.12
2023-02-28T23:05:17.741Z,83.91
2023-02-28T23:07:21.355Z,83.99
2023-02-28T23:09:24.942Z,83.75
2023-02-28T23:11:32.953Z,83.66
2023-02-28T23:13:37.124Z,83.84
2023-02-28T23:15:42.922Z,84.08
2023-02-28T23:17:46.480Z,84.10
2023-02-28T23:19:49.937Z,84.34
2023-02-28T23:21:54.379Z,83.81
2023-02-28T23:23:58.266Z,84.35
2023-02-28T23:26:01.710Z,84.32
2023-02-28T23:28:07.094Z,84.26
2023-02-28T23:30:12.111Z,84.25
2023-02-28T23:32:15.955Z,84.54
2023-02-28T23:34:26.468Z,84.63
2023-02-28T23:36:30.708Z,84.39
2023-02-28T23:38:34.526Z,84.56
2023-02-28T23:40:38.384Z,84.76
2023-02-28T23:42:41.843Z,84.71
2023-02-28T23:44:47.048Z,84.62
2023-02-28T23:46:51.628Z,84.84
2023-02-28T23:48:55.178Z,84.40
2023-02-28T23:51:03.104Z,84.41
2023-02-28T23:53:07.802Z,84.25
2023-02-28T23:55:12.406Z,84.50
2023-02-28T23:57:15.976Z,84.32
2023-02-28T23:59:19.543Z,84.49
